createdAt,value
2019-06-01T00:00:11.274Z,18.23
2019-06-01T00:02:38.598Z,20.00
2019-06-01T00:05:07.589Z,20.77
2019-06-01T00:07:36.033Z,23.45
2019-06-01T00:10:06.523Z,22.90
2019-06-01T00:12:34.963Z,24.07
2019-06-01T00:15:05.331Z,21.48
2019-06-01T00:17:33.783Z,17.17
2019-06-01T00:20:03.447Z,22.02
2019-06-01T00:22:31.882Z,20.45
2019-06-01T00:25:00.352Z,17.55
2019-06-01T00:27:28.802Z,14.43
2019-06-01T00:29:57.640Z,21.23
2019-06-01T00:32:26.089Z,21.82
2019-06-01T00:34:54.791Z,28.05
2019-06-01T00:37:23.569Z,22.13
2019-06-01T00:39:52.072Z,27.45
2019-06-01T00:42:20.548Z,16.73
2019-06-01T00:44:48.997Z,17.50
2019-06-01T00:47:17.442Z,28.45
2019-06-01T00:49:46.745Z,26.95
2019-06-01T00:52:15.682Z,25.20
2019-06-01T00:54:45.181Z,25.08
2019-06-01T00:57:13.877Z,24.20
2019-06-01T00:59:43.604Z,22.98
2019-06-01T01:02:12.702Z,21.25
2019-06-01T01:04:41.225Z,24.55
2019-06-01T01:07:09.924Z,24.07
2019-06-01T01:09:38.407Z,22.60
2019-06-01T01:12:06.909Z,23.55
2019-06-01T01:14:35.619Z,23.45
2019-06-01T01:17:04.971Z,28.47
2019-06-01T01:19:33.572Z,20.02
2019-06-01T01:22:02.396Z,24.63
2019-06-01T01:24:30.851Z,22.13
2019-06-01T01:26:59.370Z,28.98
2019-06-01T01:29:27.882Z,27.20
2019-06-01T01:31:57.338Z,23.07
2019-06-01T01:34:25.859Z,25.17
2019-06-01T01:36:54.431Z,26.70
2019-06-01T01:39:22.941Z,27.20
2019-06-01T01:41:52.180Z,24.07
2019-06-01T01:44:20.673Z,31.40
2019-06-01T01:46:50.671Z,24.15
2019-06-01T01:49:19.188Z,31.62
2019-06-01T01:51:47.932Z,25.75
2019-06-01T01:54:16.375Z,22.35
2019-06-01T01:56:45.440Z,23.70
2019-06-01T01:59:13.874Z,25.68
2019-06-01T02:01:42.596Z,24.20
2019-06-01T02:04:11.304Z,26.00
2019-06-01T02:06:40.188Z,24.95
2019-06-01T02:09:09.000Z,24.85
2019-06-01T02:11:37.467Z,26.93
2019-06-01T02:14:05.978Z,25.55
2019-06-01T02:16:34.704Z,24.05
2019-06-01T02:19:03.141Z,24.55
2019-06-01T02:21:32.088Z,24.32
2019-06-01T02:24:01.255Z,21.68
2019-06-01T02:26:30.123Z,24.80
2019-06-01T02:28:59.521Z,26.75
2019-06-01T02:31:40.762Z,28.80
2019-06-01T02:33:59.217Z,26.60
2019-06-01T02:36:28.550Z,26.65
2019-06-01T02:38:58.437Z,28.55
2019-06-01T02:41:27.474Z,25.60
2019-06-01T02:43:57.358Z,26.85
2019-06-01T02:46:26.103Z,27.50
2019-06-01T02:48:55.465Z,30.12
2019-06-01T02:51:24.175Z,36.13
2019-06-01T02:53:52.614Z,28.45
2019-06-01T02:56:21.066Z,35.23
2019-06-01T02:58:49.521Z,30.15
2019-06-01T03:01:35.578Z,39.40
2019-06-01T03:04:09.877Z,32.58
2019-06-01T03:06:41.038Z,32.73
2019-06-01T03:09:10.411Z,28.77
2019-06-01T03:11:40.559Z,36.98
2019-06-01T03:14:10.752Z,36.95
2019-06-01T03:16:41.370Z,34.18
2019-06-01T03:19:10.480Z,29.75
2019-06-01T03:21:39.259Z,34.30
2019-06-01T03:24:10.449Z,39.42
2019-06-01T03:26:46.638Z,39.88
2019-06-01T03:29:18.495Z,23.10
2019-06-01T03:31:47.446Z,41.10
2019-06-01T03:34:16.096Z,31.68
2019-06-01T03:36:44.631Z,30.27
2019-06-01T03:39:13.233Z,29.85
2019-06-01T03:41:42.169Z,31.93
2019-06-01T03:44:10.622Z,38.42
2019-06-01T03:46:39.074Z,31.40
2019-06-01T03:49:07.733Z,30.55
2019-06-01T03:51:36.314Z,37.38
2019-06-01T03:54:06.400Z,33.55
2019-06-01T03:56:35.112Z,33.25
2019-06-01T03:59:03.568Z,39.42
2019-06-01T04:01:32.085Z,31.02
2019-06-01T04:04:00.965Z,35.08
2019-06-01T04:06:29.546Z,37.00
2019-06-01T04:08:58.000Z,32.78
2019-06-01T04:11:26.699Z,39.33
2019-06-01T04:13:55.166Z,24.30
2019-06-01T04:16:23.604Z,25.80
2019-06-01T04:18:52.067Z,30.77
2019-06-01T04:21:20.503Z,31.75
2019-06-01T04:23:48.967Z,30.40
2019-06-01T04:26:17.479Z,22.60
2019-06-01T04:28:46.191Z,25.88
2019-06-01T04:31:14.718Z,27.45
2019-06-01T04:33:43.551Z,23.22
2019-06-01T04:36:13.088Z,23.67
2019-06-01T04:38:42.048Z,25.25
2019-06-01T04:41:11.883Z,23.20
2019-06-01T04:43:40.857Z,26.82
2019-06-01T04:46:10.328Z,27.73
2019-06-01T04:48:39.191Z,26.85
2019-06-01T04:51:08.720Z,24.90
2019-06-01T04:53:37.387Z,24.92
2019-06-01T04:56:07.037Z,25.97
2019-06-01T04:58:35.682Z,27.37
2019-06-01T05:01:04.818Z,25.70
2019-06-01T05:03:33.310Z,28.60
2019-06-01T05:06:01.784Z,26.75
2019-06-01T05:08:30.227Z,21.70
2019-06-01T05:10:58.693Z,28.45
2019-06-01T05:13:27.404Z,19.87
2019-06-01T05:15:55.927Z,22.73
2019-06-01T05:18:24.647Z,25.37
2019-06-01T05:20:53.110Z,20.32
2019-06-01T05:23:21.550Z,23.40
2019-06-01T05:25:53.165Z,22.17
2019-06-01T05:28:20.186Z,22.37
2019-06-01T05:30:48.654Z,20.32
2019-06-01T05:33:29.498Z,26.35
2019-06-01T05:35:47.592Z,30.75
2019-06-01T05:38:16.520Z,24.52
2019-06-01T05:40:45.174Z,24.95
2019-06-01T05:43:16.972Z,39.03
2019-06-01T05:45:43.792Z,25.48
2019-06-01T05:48:16.399Z,24.52
2019-06-01T05:50:43.188Z,29.52
2019-06-01T05:53:12.481Z,35.13
2019-06-01T05:55:41.076Z,22.17
2019-06-01T05:58:10.854Z,28.07
2019-06-01T06:00:43.905Z,34.78
2019-06-01T06:03:15.453Z,26.50
2019-06-01T06:05:42.914Z,30.70
2019-06-01T06:08:12.808Z,30.55
2019-06-01T06:10:41.667Z,31.07
2019-06-01T06:13:11.094Z,36.13
2019-06-01T06:15:39.643Z,32.63
2019-06-01T06:18:08.082Z,36.25
2019-06-01T06:20:36.950Z,32.38
2019-06-01T06:23:05.390Z,37.55
2019-06-01T06:25:36.578Z,35.40
2019-06-01T06:28:05.050Z,31.23
2019-06-01T06:30:33.508Z,35.90
2019-06-01T06:33:02.161Z,39.20
2019-06-01T06:35:30.793Z,37.55
2019-06-01T06:37:59.240Z,38.45
2019-06-01T06:40:27.777Z,36.83
2019-06-01T06:42:56.472Z,37.83
2019-06-01T06:45:25.290Z,36.60
2019-06-01T06:47:54.052Z,35.88
2019-06-01T06:50:23.564Z,36.23
2019-06-01T06:52:52.479Z,37.00
2019-06-01T06:55:21.991Z,31.87
2019-06-01T06:57:50.518Z,29.07
2019-06-01T07:00:19.060Z,31.45
2019-06-01T07:02:47.497Z,33.25
2019-06-01T07:05:17.130Z,33.25
2019-06-01T07:07:45.795Z,27.50
2019-06-01T07:10:14.717Z,30.77
2019-06-01T07:12:43.167Z,27.65
2019-06-01T07:15:12.334Z,23.95
2019-06-01T07:17:40.767Z,22.87
2019-06-01T07:20:09.373Z,26.77
2019-06-01T07:22:37.832Z,28.67
2019-06-01T07:25:06.929Z,20.12
2019-06-01T07:27:35.456Z,21.52
2019-06-01T07:30:06.075Z,24.25
2019-06-01T07:32:34.520Z,21.70
2019-06-01T07:35:03.631Z,22.05
2019-06-01T07:37:32.740Z,19.95
2019-06-01T07:40:01.581Z,18.73
2019-06-01T07:42:30.047Z,20.35
2019-06-01T07:44:58.546Z,23.00
2019-06-01T07:47:27.345Z,20.95
2019-06-01T07:49:56.323Z,18.57
2019-06-01T07:52:26.125Z,18.23
2019-06-01T07:54:54.998Z,18.52
2019-06-01T07:57:23.609Z,18.40
2019-06-01T07:59:52.171Z,16.65
2019-06-01T08:02:25.404Z,13.22
2019-06-01T08:04:54.432Z,17.62
2019-06-01T08:07:22.909Z,17.87
2019-06-01T08:09:51.544Z,13.13
2019-06-01T08:12:21.167Z,14.00
2019-06-01T08:14:49.711Z,18.77
2019-06-01T08:17:18.157Z,15.18
2019-06-01T08:19:46.634Z,13.85
2019-06-01T08:22:15.138Z,11.28
2019-06-01T08:24:43.583Z,14.00
2019-06-01T08:27:12.030Z,18.87
2019-06-01T08:29:40.479Z,12.45
2019-06-01T08:32:09.012Z,14.90
2019-06-01T08:34:37.706Z,15.23
2019-06-01T08:37:06.171Z,15.43
2019-06-01T08:39:34.631Z,11.40
2019-06-01T08:42:03.334Z,12.78
2019-06-01T08:44:31.787Z,13.05
2019-06-01T08:47:00.223Z,13.65
2019-06-01T08:49:30.566Z,10.93
2019-06-01T08:51:59.105Z,9.85
2019-06-01T08:54:28.153Z,11.65
2019-06-01T08:56:56.786Z,13.55
2019-06-01T08:59:26.235Z,9.25
2019-06-01T09:01:54.715Z,11.03
2019-06-01T09:04:23.167Z,14.07
2019-06-01T09:06:51.921Z,12.15
2019-06-01T09:09:20.783Z,8.90
2019-06-01T09:11:49.533Z,7.75
2019-06-01T09:14:18.056Z,7.05
2019-06-01T09:16:46.555Z,9.55
2019-06-01T09:19:15.095Z,9.13
2019-06-01T09:21:43.541Z,8.10
2019-06-01T09:24:12.243Z,12.98
2019-06-01T09:26:40.679Z,9.83
2019-06-01T09:29:09.122Z,8.93
2019-06-01T09:31:37.584Z,11.85
2019-06-01T09:34:06.416Z,9.23
2019-06-01T09:36:35.125Z,7.97
2019-06-01T09:39:04.734Z,11.53
2019-06-01T09:41:33.234Z,12.95
2019-06-01T09:44:01.684Z,8.48
2019-06-01T09:46:32.259Z,11.50
2019-06-01T09:49:00.315Z,6.28
2019-06-01T09:51:29.470Z,7.25
2019-06-01T09:53:58.148Z,7.92
2019-06-01T09:56:29.036Z,10.20
2019-06-01T09:58:56.755Z,9.38
2019-06-01T10:01:25.469Z,7.97
2019-06-01T10:03:54.234Z,7.78
2019-06-01T10:06:22.700Z,5.97
2019-06-01T10:08:51.405Z,7.10
2019-06-01T10:11:20.200Z,10.30
2019-06-01T10:13:48.915Z,7.87
2019-06-01T10:16:17.392Z,8.75
2019-06-01T10:18:45.843Z,11.50
2019-06-01T10:21:14.314Z,5.85
2019-06-01T10:23:42.909Z,7.10
2019-06-01T10:26:11.369Z,6.30
2019-06-01T10:28:39.877Z,10.53
2019-06-01T10:31:08.436Z,4.87
2019-06-01T10:33:37.366Z,7.40
2019-06-01T10:36:19.997Z,11.05
2019-06-01T10:38:37.385Z,6.20
2019-06-01T10:41:06.050Z,10.85
2019-06-01T10:43:35.618Z,6.65
2019-06-01T10:46:04.475Z,6.12
2019-06-01T10:48:34.401Z,9.40
2019-06-01T10:51:03.072Z,6.72
2019-06-01T10:53:32.049Z,8.35
2019-06-01T10:56:00.624Z,7.08
2019-06-01T10:58:29.064Z,7.30
2019-06-01T11:00:57.507Z,8.20
2019-06-01T11:03:25.962Z,5.50
2019-06-01T11:05:54.408Z,8.75
2019-06-01T11:08:23.139Z,6.03
2019-06-01T11:10:51.940Z,10.23
2019-06-01T11:13:20.370Z,7.37
2019-06-01T11:15:48.834Z,4.58
2019-06-01T11:18:17.269Z,7.05
2019-06-01T11:20:45.716Z,6.00
2019-06-01T11:23:14.456Z,5.97
2019-06-01T11:25:43.728Z,6.80
2019-06-01T11:28:12.352Z,11.43
2019-06-01T11:30:41.867Z,4.62
2019-06-01T11:33:10.436Z,5.47
2019-06-01T11:35:39.172Z,6.97
2019-06-01T11:38:08.092Z,5.70
2019-06-01T11:40:36.884Z,3.17
2019-06-01T11:43:05.311Z,5.20
2019-06-01T11:45:34.870Z,7.78
2019-06-01T11:48:03.718Z,5.42
2019-06-01T11:50:32.162Z,4.60
2019-06-01T11:53:00.604Z,7.87
2019-06-01T11:55:29.403Z,6.37
2019-06-01T11:57:57.839Z,5.45
2019-06-01T12:00:26.715Z,7.85
2019-06-01T12:02:55.227Z,5.22
2019-06-01T12:05:23.666Z,6.35
2019-06-01T12:07:52.526Z,7.58
2019-06-01T12:10:20.963Z,4.47
2019-06-01T12:12:49.412Z,6.08
2019-06-01T12:15:18.381Z,5.15
2019-06-01T12:17:47.359Z,8.28
2019-06-01T12:20:16.298Z,4.28
2019-06-01T12:22:45.173Z,5.33
2019-06-01T12:25:14.012Z,3.77
2019-06-01T12:27:43.547Z,6.05
2019-06-01T12:30:12.811Z,4.95
2019-06-01T12:32:41.947Z,5.22
2019-06-01T12:35:10.899Z,6.30
2019-06-01T12:37:56.105Z,6.05
2019-06-01T12:40:09.945Z,9.00
2019-06-01T12:42:39.809Z,5.55
2019-06-01T12:45:11.793Z,2.62
2019-06-01T12:47:40.239Z,6.95
2019-06-01T12:50:09.129Z,3.05
2019-06-01T12:52:37.742Z,3.47
2019-06-01T12:55:06.838Z,5.17
2019-06-01T12:57:36.815Z,5.15
2019-06-01T13:00:10.226Z,3.70
2019-06-01T13:02:40.196Z,3.30
2019-06-01T13:05:09.489Z,7.62
2019-06-01T13:07:50.934Z,9.40
2019-06-01T13:10:09.086Z,3.50
2019-06-01T13:12:37.870Z,4.28
2019-06-01T13:15:07.394Z,8.43
2019-06-01T13:17:36.102Z,4.72
2019-06-01T13:20:09.139Z,5.60
2019-06-01T13:22:37.622Z,2.90
2019-06-01T13:25:06.957Z,6.33
2019-06-01T13:27:35.575Z,4.67
2019-06-01T13:30:06.424Z,3.75
2019-06-01T13:32:35.135Z,8.33
2019-06-01T13:35:06.955Z,3.37
2019-06-01T13:37:35.656Z,7.00
2019-06-01T13:40:07.312Z,5.28
2019-06-01T13:42:35.831Z,5.45
2019-06-01T13:45:08.711Z,6.80
2019-06-01T13:47:37.164Z,3.83
2019-06-01T13:50:07.434Z,4.15
2019-06-01T13:52:35.906Z,3.67
2019-06-01T13:55:06.421Z,5.85
2019-06-01T13:57:38.572Z,4.35
2019-06-01T14:00:08.476Z,4.05
2019-06-01T14:02:37.170Z,3.93
2019-06-01T14:05:07.447Z,3.08
2019-06-01T14:07:36.168Z,6.05
2019-06-01T14:10:06.541Z,4.10
2019-06-01T14:12:35.122Z,3.02
2019-06-01T14:15:05.240Z,3.05
2019-06-01T14:17:34.079Z,3.95
2019-06-01T14:20:02.568Z,5.12
2019-06-01T14:22:31.011Z,3.83
2019-06-01T14:25:10.273Z,3.52
2019-06-01T14:27:30.367Z,3.08
2019-06-01T14:29:58.835Z,5.95
2019-06-01T14:32:27.733Z,3.90
2019-06-01T14:34:56.999Z,3.25
2019-06-01T14:37:25.923Z,2.83
2019-06-01T14:39:54.971Z,3.55
2019-06-01T14:42:23.594Z,5.10
2019-06-01T14:44:52.174Z,5.35
2019-06-01T14:47:20.944Z,3.52
2019-06-01T14:49:49.495Z,2.60
2019-06-01T14:52:18.023Z,3.42
2019-06-01T14:54:47.651Z,3.33
2019-06-01T14:57:16.259Z,3.72
2019-06-01T14:59:44.710Z,6.37
2019-06-01T15:02:13.183Z,16.25
2019-06-01T15:04:41.975Z,4.75
2019-06-01T15:07:10.423Z,6.03
2019-06-01T15:09:39.163Z,4.60
2019-06-01T15:12:07.721Z,4.28
2019-06-01T15:14:36.240Z,4.17
2019-06-01T15:17:04.755Z,3.85
2019-06-01T15:19:33.476Z,3.70
2019-06-01T15:22:03.529Z,6.70
2019-06-01T15:24:32.213Z,3.47
2019-06-01T15:27:00.655Z,4.15
2019-06-01T15:29:29.377Z,3.55
2019-06-01T15:31:58.051Z,3.05
2019-06-01T15:34:26.935Z,3.33
2019-06-01T15:36:55.620Z,4.42
2019-06-01T15:39:25.405Z,4.62
2019-06-01T15:41:55.209Z,5.05
2019-06-01T15:44:23.862Z,4.17
2019-06-01T15:46:53.744Z,4.40
2019-06-01T15:49:22.277Z,3.90
2019-06-01T15:51:51.841Z,3.85
2019-06-01T15:54:20.360Z,2.42
2019-06-01T15:56:48.797Z,2.70
2019-06-01T15:59:17.574Z,7.72
2019-06-01T16:01:46.043Z,4.08
2019-06-01T16:04:14.493Z,7.95
2019-06-01T16:06:43.232Z,3.72
2019-06-01T16:09:12.019Z,4.22
2019-06-01T16:11:40.488Z,2.70
2019-06-01T16:14:08.923Z,3.87
2019-06-01T16:16:37.383Z,2.55
2019-06-01T16:19:07.994Z,6.55
2019-06-01T16:21:36.421Z,3.17
2019-06-01T16:24:05.226Z,3.00
2019-06-01T16:26:34.054Z,3.25
2019-06-01T16:29:03.471Z,4.47
2019-06-01T16:31:32.671Z,2.72
2019-06-01T16:34:01.110Z,5.80
2019-06-01T16:36:29.555Z,6.60
2019-06-01T16:39:02.853Z,2.98
2019-06-01T16:41:28.435Z,5.10
2019-06-01T16:43:57.590Z,7.20
2019-06-01T16:46:26.363Z,3.65
2019-06-01T16:48:55.470Z,7.60
2019-06-01T16:51:24.274Z,8.33
2019-06-01T16:53:52.734Z,5.75
2019-06-01T16:56:21.242Z,3.98
2019-06-01T16:58:49.953Z,9.45
2019-06-01T17:01:18.400Z,4.83
2019-06-01T17:03:47.110Z,9.78
2019-06-01T17:06:15.790Z,3.60
2019-06-01T17:08:44.483Z,4.65
2019-06-01T17:11:12.919Z,4.83
2019-06-01T17:13:41.365Z,5.00
2019-06-01T17:16:09.824Z,3.58
2019-06-01T17:18:38.515Z,2.47
2019-06-01T17:21:07.566Z,3.95
2019-06-01T17:23:36.331Z,3.42
2019-06-01T17:26:06.567Z,3.37
2019-06-01T17:28:34.939Z,4.62
2019-06-01T17:31:04.308Z,6.35
2019-06-01T17:33:32.833Z,7.67
2019-06-01T17:36:02.712Z,6.53
2019-06-01T17:38:31.247Z,6.78
2019-06-01T17:41:00.247Z,3.83
2019-06-01T17:43:28.827Z,5.67
2019-06-01T17:45:57.268Z,5.45
2019-06-01T17:48:27.221Z,5.40
2019-06-01T17:50:56.103Z,3.95
2019-06-01T17:53:24.907Z,3.92
2019-06-01T17:55:53.535Z,6.83
2019-06-01T17:58:22.375Z,6.47
2019-06-01T18:00:51.091Z,5.08
2019-06-01T18:03:19.550Z,4.85
2019-06-01T18:05:47.997Z,2.90
2019-06-01T18:08:16.760Z,3.42
2019-06-01T18:10:53.838Z,5.53
2019-06-01T18:13:15.889Z,5.05
2019-06-01T18:15:44.591Z,5.42
2019-06-01T18:18:13.118Z,4.53
2019-06-01T18:20:41.970Z,5.05
2019-06-01T18:23:11.455Z,5.28
2019-06-01T18:25:40.785Z,3.92
2019-06-01T18:28:15.032Z,3.83
2019-06-01T18:30:39.635Z,7.33
2019-06-01T18:33:09.001Z,4.65
2019-06-01T18:35:37.928Z,4.33
2019-06-01T18:38:07.660Z,5.03
2019-06-01T18:40:36.690Z,3.77
2019-06-01T18:43:08.206Z,4.28
2019-06-01T18:45:37.052Z,5.22
2019-06-01T18:48:06.352Z,5.75
2019-06-01T18:50:35.151Z,5.50
2019-06-01T18:53:03.931Z,9.23
2019-06-01T18:55:35.570Z,9.15
2019-06-01T18:58:03.900Z,5.05
2019-06-01T19:00:32.770Z,6.15
2019-06-01T19:03:01.204Z,8.25
2019-06-01T19:05:32.175Z,6.53
2019-06-01T19:08:00.607Z,7.05
2019-06-01T19:10:30.591Z,13.80
2019-06-01T19:12:59.036Z,5.08
2019-06-01T19:15:28.965Z,10.50
2019-06-01T19:17:57.738Z,5.85
2019-06-01T19:20:26.198Z,12.23
2019-06-01T19:22:54.974Z,6.35
2019-06-01T19:25:23.732Z,5.90
2019-06-01T19:27:52.603Z,4.80
2019-06-01T19:30:36.074Z,7.45
2019-06-01T19:33:06.912Z,10.48
2019-06-01T19:35:35.514Z,6.08
2019-06-01T19:38:04.663Z,11.55
2019-06-01T19:40:35.300Z,5.47
2019-06-01T19:43:05.179Z,10.35
2019-06-01T19:45:33.695Z,8.33
2019-06-01T19:48:02.127Z,8.95
2019-06-01T19:50:30.594Z,7.35
2019-06-01T19:52:59.284Z,9.23
2019-06-01T19:55:27.808Z,6.42
2019-06-01T19:57:56.251Z,6.28
2019-06-01T20:00:24.847Z,12.73
2019-06-01T20:02:53.620Z,5.92
2019-06-01T20:05:22.949Z,10.80
2019-06-01T20:07:51.915Z,9.95
2019-06-01T20:10:20.644Z,9.45
2019-06-01T20:13:13.092Z,8.75
2019-06-01T20:15:56.273Z,8.98
2019-06-01T20:18:17.190Z,17.50
2019-06-01T20:20:45.859Z,8.65
2019-06-01T20:23:15.248Z,6.45
2019-06-01T20:25:43.933Z,9.33
2019-06-01T20:28:13.478Z,12.33
2019-06-01T20:30:42.196Z,9.23
2019-06-01T20:33:11.898Z,10.72
2019-06-01T20:35:40.572Z,7.00
2019-06-01T20:38:09.004Z,13.13
2019-06-01T20:40:37.485Z,7.75
2019-06-01T20:43:06.174Z,8.78
2019-06-01T20:45:34.928Z,10.13
2019-06-01T20:48:03.645Z,7.97
2019-06-01T20:50:32.106Z,10.58
2019-06-01T20:53:00.568Z,7.37
2019-06-01T20:55:29.262Z,9.55
2019-06-01T20:57:57.962Z,10.40
2019-06-01T21:00:26.668Z,8.35
2019-06-01T21:02:55.420Z,7.25
2019-06-01T21:05:24.133Z,8.65
2019-06-01T21:07:56.828Z,14.38
2019-06-01T21:10:24.118Z,12.82
2019-06-01T21:12:52.819Z,10.32
2019-06-01T21:15:21.391Z,10.38
2019-06-01T21:17:50.422Z,10.98
2019-06-01T21:20:25.322Z,10.88
2019-06-01T21:22:49.678Z,13.28
2019-06-01T21:25:18.812Z,11.40
2019-06-01T21:27:47.669Z,11.03
2019-06-01T21:30:18.770Z,11.12
2019-06-01T21:32:48.054Z,13.28
2019-06-01T21:35:19.329Z,10.10
2019-06-01T21:37:48.011Z,12.13
2019-06-01T21:40:17.321Z,9.98
2019-06-01T21:43:00.207Z,13.18
2019-06-01T21:45:17.455Z,8.60
2019-06-01T21:47:46.161Z,11.00
2019-06-01T21:50:16.515Z,10.40
2019-06-01T21:52:46.819Z,10.10
2019-06-01T21:55:16.039Z,13.05
2019-06-01T21:57:44.963Z,12.85
2019-06-01T22:00:18.672Z,7.03
2019-06-01T22:02:47.644Z,17.77
2019-06-01T22:05:16.816Z,12.75
2019-06-01T22:07:45.343Z,10.08
2019-06-01T22:10:14.320Z,6.58
2019-06-01T22:12:42.755Z,10.20
2019-06-01T22:15:11.483Z,11.10
2019-06-01T22:17:40.267Z,9.40
2019-06-01T22:20:09.043Z,9.40
2019-06-01T22:22:37.504Z,7.65
2019-06-01T22:25:06.699Z,14.55
2019-06-01T22:27:35.195Z,11.08
2019-06-01T22:30:05.550Z,8.80
2019-06-01T22:32:34.333Z,10.72
2019-06-01T22:35:03.418Z,12.93
2019-06-01T22:37:32.370Z,20.77
2019-06-01T22:40:00.874Z,10.30
2019-06-01T22:42:29.311Z,18.23
2019-06-01T22:44:57.750Z,10.93
2019-06-01T22:47:26.648Z,9.53
2019-06-01T22:49:55.489Z,12.07
2019-06-01T22:52:24.979Z,11.85
2019-06-01T22:54:53.557Z,12.88
2019-06-01T22:57:22.403Z,8.18
2019-06-01T22:59:50.955Z,11.40
2019-06-01T23:02:19.399Z,18.95
2019-06-01T23:04:47.834Z,10.35
2019-06-01T23:07:16.291Z,14.87
2019-06-01T23:09:44.735Z,10.78
2019-06-01T23:12:13.451Z,11.97
2019-06-01T23:14:42.211Z,9.83
2019-06-01T23:17:10.672Z,12.60
2019-06-01T23:19:39.116Z,12.07
2019-06-01T23:22:07.551Z,12.98
2019-06-01T23:24:36.323Z,10.58
2019-06-01T23:27:05.130Z,16.48
2019-06-01T23:29:33.574Z,12.28
2019-06-01T23:32:02.027Z,12.30
2019-06-01T23:34:30.738Z,9.88
2019-06-01T23:36:59.394Z,14.28
2019-06-01T23:39:28.762Z,14.10
2019-06-01T23:41:57.650Z,14.98
2019-06-01T23:44:29.475Z,16.50
2019-06-01T23:46:56.326Z,17.77
2019-06-01T23:49:25.142Z,12.03
2019-06-01T23:51:54.125Z,11.10
2019-06-01T23:54:23.549Z,14.10
2019-06-01T23:56:52.438Z,12.15
2019-06-01T23:59:20.894Z,10.18
